createdAt,value
2022-11-10T00:00:51.359Z,0.00
2022-11-10T00:01:49.477Z,0.00
2022-11-10T00:02:49.357Z,0.00
2022-11-10T00:03:50.457Z,0.00
2022-11-10T00:04:49.426Z,0.00
2022-11-10T00:07:39.491Z,0.00
2022-11-10T00:10:54.067Z,0.00
2022-11-10T00:11:52.544Z,0.00
2022-11-10T00:12:43.026Z,0.00
2022-11-10T00:13:53.129Z,0.00
2022-11-10T00:14:52.132Z,0.00
2022-11-10T00:15:53.681Z,0.00
2022-11-10T00:16:51.610Z,0.00
2022-11-10T00:17:43.057Z,0.00
2022-11-10T00:18:43.027Z,0.00
2022-11-10T00:19:51.239Z,0.00
2022-11-10T00:20:53.101Z,0.00
2022-11-10T00:21:52.310Z,0.00
2022-11-10T00:22:43.045Z,0.00
2022-11-10T00:23:54.343Z,0.00
2022-11-10T00:24:52.391Z,0.00
2022-11-10T00:25:42.985Z,0.00
2022-11-10T00:26:42.999Z,0.00
2022-11-10T00:27:51.529Z,0.00
2022-11-10T00:28:42.989Z,0.00
2022-11-10T00:29:53.961Z,0.00
2022-11-10T00:30:46.653Z,0.00
2022-11-10T00:31:54.031Z,0.00
2022-11-10T00:32:55.160Z,0.00
2022-11-10T00:33:54.123Z,0.00
2022-11-10T00:34:52.081Z,0.00
2022-11-10T00:37:24.585Z,0.00
2022-11-10T00:38:24.551Z,0.00
2022-11-10T00:39:24.569Z,0.00
2022-11-10T00:40:24.551Z,0.00
2022-11-10T00:41:36.762Z,0.00
2022-11-10T00:42:35.215Z,0.00
2022-11-10T00:43:26.746Z,0.00
2022-11-10T00:44:24.561Z,0.00
2022-11-10T00:47:16.105Z,0.00
2022-11-10T00:48:14.412Z,0.00
2022-11-10T00:49:13.708Z,0.00
2022-11-10T00:50:05.875Z,0.00
2022-11-10T00:51:05.896Z,0.00
2022-11-10T00:52:16.676Z,0.00
2022-11-10T00:53:16.696Z,0.00
2022-11-10T00:54:15.261Z,0.00
2022-11-10T00:55:05.890Z,0.00
2022-11-10T00:56:17.978Z,0.00
2022-11-10T00:57:16.819Z,0.00
2022-11-10T00:58:15.951Z,0.00
2022-11-10T00:59:18.371Z,0.00
2022-11-10T01:00:15.412Z,0.00
2022-11-10T01:01:16.468Z,0.00
2022-11-10T01:02:05.886Z,0.00
2022-11-10T01:03:13.979Z,0.00
2022-11-10T01:04:05.856Z,0.00
2022-11-10T01:05:22.027Z,0.00
2022-11-10T01:06:05.842Z,0.00
2022-11-10T01:08:55.643Z,0.00
2022-11-10T01:09:57.093Z,0.00
2022-11-10T01:10:45.865Z,0.00
2022-11-10T01:11:53.484Z,0.00
2022-11-10T01:12:45.881Z,0.00
2022-11-10T01:13:55.165Z,0.00
2022-11-10T01:14:57.245Z,0.00
2022-11-10T01:15:57.236Z,0.00
2022-11-10T01:16:54.410Z,0.00
2022-11-10T01:17:59.791Z,0.00
2022-11-10T01:18:56.833Z,0.00
2022-11-10T01:19:45.897Z,0.00
2022-11-10T01:20:59.867Z,0.00
2022-11-10T01:21:45.853Z,0.00
2022-11-10T01:22:45.861Z,0.00
2022-11-10T01:23:58.414Z,0.00
2022-11-10T01:24:54.460Z,0.00
2022-11-10T01:25:56.498Z,0.00
2022-11-10T01:26:45.901Z,0.00
2022-11-10T01:27:45.847Z,0.00
2022-11-10T01:28:56.034Z,0.00
2022-11-10T01:31:30.759Z,0.00
2022-11-10T01:32:42.811Z,0.00
2022-11-10T01:33:30.678Z,0.00
2022-11-10T01:34:44.332Z,0.00
2022-11-10T01:35:47.029Z,0.00
2022-11-10T01:36:42.957Z,0.00
2022-11-10T01:37:39.978Z,0.00
2022-11-10T01:38:41.958Z,0.00
2022-11-10T01:39:30.668Z,0.00
2022-11-10T01:40:41.522Z,0.00
2022-11-10T01:41:41.060Z,0.00
2022-11-10T01:42:41.607Z,0.00
2022-11-10T01:43:44.591Z,0.00
2022-11-10T01:44:39.145Z,0.00
2022-11-10T01:45:38.223Z,0.00
2022-11-10T01:46:39.246Z,0.00
2022-11-10T01:47:30.660Z,0.00
2022-11-10T01:48:30.648Z,0.00
2022-11-10T01:49:30.638Z,0.00
2022-11-10T01:50:30.634Z,0.00
2022-11-10T01:51:30.634Z,0.00
2022-11-10T01:52:30.661Z,0.00
2022-11-10T01:53:30.669Z,0.00
2022-11-10T01:54:39.757Z,0.00
2022-11-10T01:55:30.632Z,0.00
2022-11-10T01:56:30.634Z,0.00
2022-11-10T01:57:30.645Z,0.00
2022-11-10T01:58:30.634Z,0.00
2022-11-10T01:59:30.625Z,0.00
2022-11-10T02:02:06.664Z,0.00
2022-11-10T02:03:03.727Z,0.00
2022-11-10T02:04:03.697Z,0.00
2022-11-10T02:05:03.713Z,0.00
2022-11-10T02:06:03.697Z,0.00
2022-11-10T02:07:03.750Z,0.00
2022-11-10T02:08:14.390Z,0.00
2022-11-10T02:09:03.688Z,0.00
2022-11-10T02:10:13.779Z,0.00
2022-11-10T02:11:03.693Z,0.00
2022-11-10T02:12:03.691Z,0.00
2022-11-10T02:13:03.692Z,0.00
2022-11-10T02:14:03.725Z,0.00
2022-11-10T02:15:03.691Z,0.00
2022-11-10T02:16:03.708Z,0.00
2022-11-10T02:17:03.699Z,0.00
2022-11-10T02:18:03.685Z,0.00
2022-11-10T02:19:12.288Z,0.00
2022-11-10T02:20:03.694Z,0.00
2022-11-10T02:21:03.683Z,0.00
2022-11-10T02:22:03.689Z,0.00
2022-11-10T02:23:03.694Z,0.00
2022-11-10T02:24:03.692Z,0.00
2022-11-10T02:25:11.265Z,0.00
2022-11-10T02:26:03.694Z,0.00
2022-11-10T02:27:03.680Z,0.00
2022-11-10T02:28:03.679Z,0.00
2022-11-10T02:29:03.688Z,0.00
2022-11-10T02:30:03.673Z,0.00
2022-11-10T02:31:03.718Z,0.00
2022-11-10T02:32:03.675Z,0.00
2022-11-10T02:33:03.700Z,0.00
2022-11-10T02:34:03.692Z,0.00
2022-11-10T02:35:03.703Z,0.00
2022-11-10T02:36:03.770Z,0.00
2022-11-10T02:37:03.671Z,0.00
2022-11-10T02:38:03.672Z,0.00
2022-11-10T02:39:03.683Z,0.00
2022-11-10T02:40:03.704Z,0.00
2022-11-10T02:41:03.676Z,0.00
2022-11-10T02:42:03.668Z,0.00
2022-11-10T02:43:03.668Z,0.00
2022-11-10T02:44:03.678Z,0.00
2022-11-10T02:45:03.734Z,0.00
2022-11-10T02:46:03.718Z,0.00
2022-11-10T02:47:03.670Z,0.00
2022-11-10T02:48:03.678Z,0.00
2022-11-10T02:49:03.661Z,0.00
2022-11-10T02:50:03.659Z,0.00
2022-11-10T02:51:03.661Z,0.00
2022-11-10T02:52:03.690Z,0.00
2022-11-10T02:53:03.656Z,0.00
2022-11-10T02:54:03.665Z,0.00
2022-11-10T02:55:03.681Z,0.00
2022-11-10T02:56:03.687Z,0.00
2022-11-10T02:57:03.672Z,0.00
2022-11-10T02:58:03.677Z,0.00
2022-11-10T02:59:03.654Z,0.00
2022-11-10T03:00:03.662Z,0.00
2022-11-10T03:01:03.734Z,0.00
2022-11-10T03:02:03.659Z,0.00
2022-11-10T03:03:03.688Z,0.00
2022-11-10T03:04:03.650Z,0.00
2022-11-10T03:05:03.647Z,0.00
2022-11-10T03:06:03.665Z,0.00
2022-11-10T03:07:03.739Z,0.00
2022-11-10T03:08:03.651Z,0.00
2022-11-10T03:09:03.668Z,0.00
2022-11-10T03:10:03.653Z,0.00
2022-11-10T03:11:03.654Z,0.00
2022-11-10T03:12:03.643Z,0.00
2022-11-10T03:13:03.642Z,0.00
2022-11-10T03:14:03.665Z,0.00
2022-11-10T03:15:03.662Z,0.00
2022-11-10T03:16:03.662Z,0.00
2022-11-10T03:17:03.644Z,0.00
2022-11-10T03:18:03.683Z,0.00
2022-11-10T03:19:03.665Z,0.00
2022-11-10T03:20:03.648Z,0.00
2022-11-10T03:21:03.676Z,0.00
2022-11-10T03:22:03.639Z,0.00
2022-11-10T03:23:03.643Z,0.00
2022-11-10T03:24:03.652Z,0.00
2022-11-10T03:25:03.652Z,0.00
2022-11-10T03:26:03.636Z,0.00
2022-11-10T03:27:03.680Z,0.00
2022-11-10T03:28:03.648Z,0.00
2022-11-10T03:29:03.653Z,0.00
2022-11-10T03:30:03.635Z,0.00
2022-11-10T03:31:03.642Z,0.00
2022-11-10T03:32:03.643Z,0.00
2022-11-10T03:33:03.639Z,0.00
2022-11-10T03:34:03.620Z,0.00
2022-11-10T03:35:03.650Z,0.00
2022-11-10T03:36:03.669Z,0.00
2022-11-10T03:37:03.629Z,0.00
2022-11-10T03:38:03.651Z,0.00
2022-11-10T03:39:03.639Z,0.00
2022-11-10T03:40:03.629Z,0.00
2022-11-10T03:41:18.817Z,0.00
2022-11-10T03:42:03.645Z,0.00
2022-11-10T03:43:03.645Z,0.00
2022-11-10T03:44:03.639Z,0.00
2022-11-10T03:45:03.628Z,0.00
2022-11-10T03:46:03.644Z,0.00
2022-11-10T03:47:03.640Z,0.00
2022-11-10T03:48:03.643Z,0.00
2022-11-10T03:49:03.671Z,0.00
2022-11-10T03:50:03.626Z,0.00
2022-11-10T03:51:03.644Z,0.00
2022-11-10T03:52:03.636Z,0.00
2022-11-10T03:53:03.628Z,0.00
2022-11-10T03:54:03.628Z,0.00
2022-11-10T03:55:03.822Z,0.00
2022-11-10T03:56:03.627Z,0.00
2022-11-10T03:57:03.627Z,0.00
2022-11-10T03:58:03.649Z,0.00
2022-11-10T03:59:03.613Z,0.00
2022-11-10T04:00:03.618Z,0.00
2022-11-10T04:01:03.616Z,0.00
2022-11-10T04:02:03.631Z,0.00
2022-11-10T04:03:03.618Z,0.00
2022-11-10T04:04:03.623Z,0.00
2022-11-10T04:05:12.057Z,0.00
2022-11-10T04:06:03.624Z,0.00
2022-11-10T04:07:13.183Z,0.00
2022-11-10T04:08:14.616Z,0.00
2022-11-10T04:09:03.617Z,0.00
2022-11-10T04:10:11.655Z,0.00
2022-11-10T04:11:03.729Z,0.00
2022-11-10T04:12:12.687Z,0.00
2022-11-10T04:14:51.506Z,0.00
2022-11-10T04:15:51.162Z,0.00
2022-11-10T04:16:51.178Z,0.00
2022-11-10T04:17:42.959Z,0.00
2022-11-10T04:18:42.952Z,0.00
2022-11-10T04:21:24.339Z,0.00
2022-11-10T04:22:24.320Z,0.00
2022-11-10T04:25:03.676Z,0.00
2022-11-10T04:26:12.233Z,0.00
2022-11-10T04:27:11.903Z,0.00
2022-11-10T04:28:14.001Z,0.00
2022-11-10T04:29:03.663Z,0.00
2022-11-10T04:30:11.963Z,0.00
2022-11-10T04:31:03.687Z,0.00
2022-11-10T04:32:11.490Z,0.00
2022-11-10T04:33:04.512Z,0.00
2022-11-10T04:34:16.028Z,0.00
2022-11-10T04:35:12.054Z,0.00
2022-11-10T04:37:51.546Z,0.00
2022-11-10T04:38:42.924Z,0.00
2022-11-10T04:41:25.566Z,0.00
2022-11-10T04:42:32.974Z,0.00
2022-11-10T04:43:25.737Z,0.00
2022-11-10T04:46:07.088Z,0.00
2022-11-10T04:49:29.530Z,0.00
2022-11-10T04:50:20.579Z,0.00
2022-11-10T04:51:31.130Z,0.00
2022-11-10T04:52:29.088Z,0.00
2022-11-10T04:55:22.330Z,0.00
2022-11-10T04:56:22.318Z,0.00
2022-11-10T04:57:22.328Z,0.00
2022-11-10T04:58:22.319Z,0.00
2022-11-10T04:59:22.366Z,0.00
2022-11-10T05:00:32.455Z,0.00
2022-11-10T05:01:22.382Z,0.00
2022-11-10T05:02:39.232Z,0.00
2022-11-10T05:03:30.556Z,0.00
2022-11-10T05:04:31.620Z,0.00
2022-11-10T05:07:32.534Z,0.00
2022-11-10T05:08:34.401Z,0.00
2022-11-10T05:09:32.952Z,0.00
2022-11-10T05:10:34.500Z,0.00
2022-11-10T05:11:33.034Z,0.00
2022-11-10T05:12:24.892Z,0.00
2022-11-10T05:18:47.470Z,0.00
2022-11-10T05:21:39.450Z,0.00
2022-11-10T05:22:29.421Z,0.00
2022-11-10T05:23:39.619Z,0.00
2022-11-10T05:24:29.469Z,0.00
2022-11-10T05:25:29.408Z,0.00
2022-11-10T05:28:18.097Z,0.00
2022-11-10T05:29:09.370Z,0.00
2022-11-10T05:30:20.103Z,0.00
2022-11-10T05:31:09.474Z,0.00
2022-11-10T05:32:10.233Z,0.00
2022-11-10T05:33:19.482Z,0.00
2022-11-10T05:34:19.693Z,0.00
2022-11-10T05:38:53.089Z,0.00
2022-11-10T05:39:53.203Z,0.00
2022-11-10T05:44:25.270Z,0.00
2022-11-10T05:45:25.240Z,0.00
2022-11-10T05:46:32.768Z,0.00
2022-11-10T05:47:34.340Z,0.00
2022-11-10T05:48:35.400Z,0.00
2022-11-10T05:49:39.925Z,0.00
2022-11-10T05:52:51.539Z,0.00
2022-11-10T05:57:09.716Z,0.00
2022-11-10T05:58:11.310Z,0.00
2022-11-10T05:59:12.828Z,0.00
2022-11-10T06:04:53.674Z,0.00
2022-11-10T06:05:52.726Z,0.00
2022-11-10T06:08:47.422Z,0.00
2022-11-10T06:09:47.409Z,0.00
2022-11-10T06:10:45.231Z,0.00
2022-11-10T06:11:49.538Z,0.00
2022-11-10T06:12:36.647Z,0.00
2022-11-10T06:13:36.692Z,0.00
2022-11-10T06:14:47.750Z,0.00
2022-11-10T06:15:50.527Z,0.00
2022-11-10T06:16:47.672Z,0.00
2022-11-10T06:20:02.226Z,0.00
2022-11-10T06:24:51.060Z,0.00
2022-11-10T06:25:41.002Z,0.00
2022-11-10T06:26:41.021Z,0.00
2022-11-10T06:27:41.036Z,0.00
2022-11-10T06:30:35.229Z,5.63
2022-11-10T06:31:47.065Z,5.63
2022-11-10T06:34:25.490Z,5.63
2022-11-10T06:39:11.598Z,11.25
2022-11-10T06:40:11.601Z,11.25
2022-11-10T06:41:34.844Z,11.25
2022-11-10T06:42:11.597Z,11.25
2022-11-10T06:43:11.786Z,11.25
2022-11-10T06:49:06.571Z,11.25
2022-11-10T06:50:06.385Z,11.25
2022-11-10T06:59:14.741Z,50.63
2022-11-10T07:00:14.673Z,50.63
2022-11-10T07:01:15.793Z,50.63
2022-11-10T07:02:14.226Z,50.63
2022-11-10T07:03:24.234Z,50.63
2022-11-10T07:04:24.761Z,56.25
2022-11-10T07:05:25.778Z,61.88
2022-11-10T07:06:13.824Z,61.88
2022-11-10T07:07:13.738Z,61.88
2022-11-10T07:11:45.609Z,78.75
2022-11-10T07:18:41.942Z,118.13
2022-11-10T07:19:41.648Z,123.75
2022-11-10T07:22:38.311Z,123.75
2022-11-10T07:26:27.767Z,78.75
2022-11-10T07:29:16.607Z,151.88
2022-11-10T07:30:16.573Z,67.50
2022-11-10T07:31:26.308Z,28.13
2022-11-10T07:37:44.846Z,22.50
2022-11-10T07:40:46.070Z,22.50
2022-11-10T07:41:51.294Z,22.50
2022-11-10T07:51:04.360Z,275.63
2022-11-10T07:51:52.251Z,286.88
2022-11-10T07:56:51.783Z,292.50
2022-11-10T08:00:01.040Z,320.63
2022-11-10T08:02:32.455Z,343.13
2022-11-10T08:03:32.439Z,298.13
2022-11-10T08:04:32.417Z,337.50
2022-11-10T08:05:32.451Z,343.13
2022-11-10T08:06:42.346Z,354.38
2022-11-10T08:09:38.838Z,399.38
2022-11-10T08:16:37.230Z,281.25
2022-11-10T08:19:44.396Z,213.75
2022-11-10T08:22:53.476Z,196.88
2022-11-10T08:24:03.620Z,168.75
2022-11-10T08:26:43.829Z,213.75
2022-11-10T08:30:02.003Z,180.00
2022-11-10T08:30:49.659Z,157.50
2022-11-10T08:32:04.613Z,146.25
2022-11-10T08:34:51.363Z,185.63
2022-11-10T08:35:42.574Z,191.25
2022-11-10T08:38:45.706Z,213.75
2022-11-10T08:39:55.806Z,264.38
2022-11-10T08:40:57.372Z,360.00
2022-11-10T08:41:45.748Z,320.63
2022-11-10T08:42:45.698Z,247.50
2022-11-10T08:43:58.386Z,331.88
2022-11-10T08:44:45.647Z,466.88
2022-11-10T08:45:45.662Z,506.25
2022-11-10T08:46:45.644Z,416.25
2022-11-10T08:47:45.661Z,286.88
2022-11-10T08:50:31.233Z,208.13
2022-11-10T08:51:36.314Z,123.75
2022-11-10T08:56:02.109Z,163.13
2022-11-10T08:56:54.522Z,309.38
2022-11-10T08:57:54.520Z,562.50
2022-11-10T08:58:54.495Z,534.38
2022-11-10T08:59:54.498Z,230.63
2022-11-10T09:00:54.512Z,230.63
2022-11-10T09:01:54.532Z,180.00
2022-11-10T09:02:54.534Z,168.75
2022-11-10T09:03:54.509Z,241.88
2022-11-10T09:04:54.554Z,253.13
2022-11-10T09:05:58.321Z,264.38
2022-11-10T09:06:54.502Z,135.00
2022-11-10T09:07:54.534Z,146.25
2022-11-10T09:08:54.493Z,135.00
2022-11-10T09:10:06.835Z,196.88
2022-11-10T09:10:54.498Z,253.13
2022-11-10T09:11:54.509Z,303.75
2022-11-10T09:12:54.499Z,241.88
2022-11-10T09:13:54.517Z,208.13
2022-11-10T09:14:54.509Z,219.38
2022-11-10T09:15:54.521Z,225.00
2022-11-10T09:16:54.525Z,202.50
2022-11-10T09:17:54.513Z,219.38
2022-11-10T09:18:54.532Z,168.75
2022-11-10T09:19:54.554Z,213.75
2022-11-10T09:20:54.506Z,151.88
2022-11-10T09:21:54.503Z,135.00
2022-11-10T09:22:54.519Z,135.00
2022-11-10T09:23:54.551Z,123.75
2022-11-10T09:24:54.529Z,112.50
2022-11-10T09:25:54.518Z,135.00
2022-11-10T09:26:54.521Z,146.25
2022-11-10T09:27:54.504Z,135.00
2022-11-10T09:28:54.535Z,123.75
2022-11-10T09:29:54.518Z,123.75
2022-11-10T09:30:54.523Z,129.38
2022-11-10T09:31:54.518Z,140.63
2022-11-10T09:32:54.533Z,135.00
2022-11-10T09:33:54.514Z,146.25
2022-11-10T09:34:54.517Z,140.63
2022-11-10T09:35:54.526Z,129.38
2022-11-10T09:36:54.520Z,112.50
2022-11-10T09:37:54.548Z,112.50
2022-11-10T09:38:54.521Z,151.88
2022-11-10T09:39:54.610Z,393.75
2022-11-10T09:40:54.535Z,466.88
2022-11-10T09:41:54.532Z,163.13
2022-11-10T09:42:54.514Z,253.13
2022-11-10T09:43:54.549Z,185.63
2022-11-10T09:44:54.520Z,151.88
2022-11-10T09:45:54.523Z,106.88
2022-11-10T09:46:54.544Z,151.88
2022-11-10T09:47:58.379Z,123.75
2022-11-10T09:48:54.538Z,129.38
2022-11-10T09:49:54.520Z,196.88
2022-11-10T09:50:54.525Z,191.25
2022-11-10T09:51:54.537Z,185.63
2022-11-10T09:52:54.547Z,146.25
2022-11-10T09:53:54.534Z,129.38
2022-11-10T09:54:54.539Z,140.63
2022-11-10T09:55:54.521Z,315.00
2022-11-10T09:56:54.549Z,376.88
2022-11-10T09:57:54.524Z,556.88
2022-11-10T09:58:54.534Z,551.25
2022-11-10T09:59:54.543Z,410.63
2022-11-10T10:00:54.552Z,562.50
2022-11-10T10:01:54.567Z,646.88
2022-11-10T10:02:54.539Z,658.13
2022-11-10T10:03:54.547Z,540.00
2022-11-10T10:04:54.534Z,472.50
2022-11-10T10:05:54.533Z,399.38
2022-11-10T10:07:09.984Z,641.25
2022-11-10T10:07:54.626Z,534.38
2022-11-10T10:08:54.540Z,326.25
2022-11-10T10:09:54.539Z,253.13
2022-11-10T10:10:54.539Z,320.63
2022-11-10T10:11:54.552Z,270.00
2022-11-10T10:12:54.572Z,343.13
2022-11-10T10:13:54.566Z,528.75
2022-11-10T10:14:54.556Z,489.38
2022-11-10T10:15:54.548Z,258.75
2022-11-10T10:16:54.568Z,326.25
2022-11-10T10:17:54.563Z,219.38
2022-11-10T10:18:54.567Z,253.13
2022-11-10T10:19:54.554Z,382.50
2022-11-10T10:20:54.573Z,286.88
2022-11-10T10:21:54.576Z,180.00
2022-11-10T10:22:54.583Z,151.88
2022-11-10T10:24:09.238Z,185.63
2022-11-10T10:24:54.573Z,129.38
2022-11-10T10:25:54.595Z,163.13
2022-11-10T10:26:54.569Z,168.75
2022-11-10T10:27:54.585Z,168.75
2022-11-10T10:28:54.595Z,101.25
2022-11-10T10:29:54.576Z,123.75
2022-11-10T10:30:54.593Z,118.13
2022-11-10T10:31:54.588Z,95.63
2022-11-10T10:32:54.604Z,112.50
2022-11-10T10:33:54.600Z,101.25
2022-11-10T10:34:54.600Z,106.88
2022-11-10T10:35:54.595Z,90.00
2022-11-10T10:36:54.597Z,90.00
2022-11-10T10:37:54.592Z,84.38
2022-11-10T10:38:54.612Z,78.75
2022-11-10T10:39:54.599Z,84.38
2022-11-10T10:40:54.606Z,90.00
2022-11-10T10:41:54.620Z,95.63
2022-11-10T10:42:54.598Z,118.13
2022-11-10T10:43:54.599Z,135.00
2022-11-10T10:44:54.633Z,151.88
2022-11-10T10:45:54.607Z,168.75
2022-11-10T10:46:54.605Z,129.38
2022-11-10T10:47:54.610Z,140.63
2022-11-10T10:49:22.227Z,157.50
2022-11-10T10:49:54.612Z,151.88
2022-11-10T10:50:54.635Z,135.00
2022-11-10T10:51:54.622Z,112.50
2022-11-10T10:52:55.572Z,78.75
2022-11-10T10:53:54.613Z,95.63
2022-11-10T10:54:54.676Z,95.63
2022-11-10T10:55:54.627Z,90.00
2022-11-10T10:56:54.621Z,56.25
2022-11-10T10:57:54.631Z,50.63
2022-11-10T10:58:54.637Z,50.63
2022-11-10T10:59:54.631Z,50.63
2022-11-10T11:00:54.653Z,56.25
2022-11-10T11:01:54.667Z,78.75
2022-11-10T11:02:54.632Z,90.00
2022-11-10T11:03:54.627Z,118.13
2022-11-10T11:04:54.634Z,112.50
2022-11-10T11:05:54.645Z,253.13
2022-11-10T11:06:54.688Z,315.00
2022-11-10T11:07:54.639Z,129.38
2022-11-10T11:08:59.173Z,112.50
2022-11-10T11:09:54.648Z,151.88
2022-11-10T11:10:54.653Z,326.25
2022-11-10T11:11:54.642Z,264.38
2022-11-10T11:12:54.662Z,320.63
2022-11-10T11:13:54.648Z,270.00
2022-11-10T11:14:54.659Z,61.88
2022-11-10T11:15:54.645Z,45.00
2022-11-10T11:16:54.638Z,202.50
2022-11-10T11:17:54.649Z,73.13
2022-11-10T11:18:54.661Z,45.00
2022-11-10T11:19:59.806Z,56.25
2022-11-10T11:20:54.658Z,56.25
2022-11-10T11:21:54.653Z,56.25
2022-11-10T11:22:54.668Z,61.88
2022-11-10T11:23:54.674Z,146.25
2022-11-10T11:24:54.667Z,73.13
2022-11-10T11:25:54.665Z,78.75
2022-11-10T11:26:54.648Z,61.88
2022-11-10T11:27:54.665Z,168.75
2022-11-10T11:28:54.664Z,56.25
2022-11-10T11:29:54.668Z,112.50
2022-11-10T11:30:54.659Z,151.88
2022-11-10T11:31:54.655Z,140.63
2022-11-10T11:32:54.670Z,140.63
2022-11-10T11:33:54.684Z,140.63
2022-11-10T11:34:54.659Z,123.75
2022-11-10T11:35:54.666Z,84.38
2022-11-10T11:36:54.673Z,56.25
2022-11-10T11:37:54.678Z,67.50
2022-11-10T11:38:54.675Z,67.50
2022-11-10T11:39:54.677Z,84.38
2022-11-10T11:40:54.667Z,61.88
2022-11-10T11:41:54.680Z,135.00
2022-11-10T11:42:54.685Z,67.50
2022-11-10T11:43:54.683Z,50.63
2022-11-10T11:44:54.679Z,140.63
2022-11-10T11:45:54.687Z,146.25
2022-11-10T11:46:54.678Z,151.88
2022-11-10T11:47:54.693Z,140.63
2022-11-10T11:48:54.690Z,135.00
2022-11-10T11:49:54.693Z,140.63
2022-11-10T11:50:54.724Z,146.25
2022-11-10T11:51:54.707Z,151.88
2022-11-10T11:52:54.688Z,135.00
2022-11-10T11:53:54.690Z,123.75
2022-11-10T11:54:54.689Z,118.13
2022-11-10T11:55:54.690Z,129.38
2022-11-10T11:56:54.700Z,123.75
2022-11-10T11:57:54.693Z,45.00
2022-11-10T11:58:54.708Z,67.50
2022-11-10T11:59:54.697Z,101.25
2022-11-10T12:00:54.686Z,118.13
2022-11-10T12:01:54.691Z,67.50
2022-11-10T12:02:54.750Z,56.25
2022-11-10T12:03:54.711Z,50.63
2022-11-10T12:04:54.690Z,118.13
2022-11-10T12:05:54.701Z,67.50
2022-11-10T12:06:54.720Z,67.50
2022-11-10T12:07:54.720Z,78.75
2022-11-10T12:08:54.723Z,61.88
2022-11-10T12:09:54.706Z,56.25
2022-11-10T12:10:54.697Z,39.38
2022-11-10T12:11:54.723Z,33.75
2022-11-10T12:12:54.715Z,56.25
2022-11-10T12:13:54.731Z,50.63
2022-11-10T12:14:54.721Z,39.38
2022-11-10T12:15:54.720Z,50.63
2022-11-10T12:16:54.725Z,50.63
2022-11-10T12:17:54.725Z,45.00
2022-11-10T12:18:54.735Z,45.00
2022-11-10T12:19:54.712Z,56.25
2022-11-10T12:20:54.717Z,61.88
2022-11-10T12:21:54.714Z,61.88
2022-11-10T12:22:54.717Z,61.88
2022-11-10T12:23:54.736Z,73.13
2022-11-10T12:24:54.727Z,78.75
2022-11-10T12:25:54.730Z,61.88
2022-11-10T12:26:54.739Z,67.50
2022-11-10T12:27:54.724Z,84.38
2022-11-10T12:28:54.730Z,84.38
2022-11-10T12:29:54.745Z,78.75
2022-11-10T12:31:00.536Z,67.50
2022-11-10T12:31:54.738Z,78.75
2022-11-10T12:32:54.726Z,90.00
2022-11-10T12:33:54.741Z,61.88
2022-11-10T12:34:54.732Z,73.13
2022-11-10T12:35:54.737Z,56.25
2022-11-10T12:36:54.739Z,61.88
2022-11-10T12:37:54.738Z,50.63
2022-11-10T12:38:59.631Z,50.63
2022-11-10T12:39:54.806Z,33.75
2022-11-10T12:40:54.756Z,33.75
2022-11-10T12:41:54.749Z,28.13
2022-11-10T12:42:54.743Z,22.50
2022-11-10T12:43:54.745Z,28.13
2022-11-10T12:44:54.738Z,22.50
2022-11-10T12:45:54.761Z,22.50
2022-11-10T12:46:54.749Z,28.13
2022-11-10T12:47:54.738Z,39.38
2022-11-10T12:48:54.754Z,33.75
2022-11-10T12:49:55.814Z,45.00
2022-11-10T12:50:54.757Z,39.38
2022-11-10T12:51:54.759Z,45.00
2022-11-10T12:52:54.753Z,56.25
2022-11-10T12:53:54.756Z,56.25
2022-11-10T12:54:54.746Z,61.88
2022-11-10T12:55:54.760Z,61.88
2022-11-10T12:56:54.744Z,56.25
2022-11-10T12:57:54.758Z,61.88
2022-11-10T12:58:54.758Z,56.25
2022-11-10T12:59:54.760Z,50.63
2022-11-10T13:00:54.750Z,45.00
2022-11-10T13:01:54.802Z,50.63
2022-11-10T13:02:54.762Z,61.88
2022-11-10T13:03:54.752Z,67.50
2022-11-10T13:04:54.762Z,67.50
2022-11-10T13:05:54.760Z,67.50
2022-11-10T13:06:54.829Z,56.25
2022-11-10T13:07:54.755Z,61.88
2022-11-10T13:08:54.756Z,73.13
2022-11-10T13:09:54.762Z,78.75
2022-11-10T13:10:54.780Z,84.38
2022-11-10T13:11:54.769Z,73.13
2022-11-10T13:12:54.770Z,67.50
2022-11-10T13:13:59.288Z,84.38
2022-11-10T13:14:54.782Z,84.38
2022-11-10T13:15:54.766Z,78.75
2022-11-10T13:16:54.765Z,73.13
2022-11-10T13:17:54.770Z,73.13
2022-11-10T13:18:54.784Z,67.50
2022-11-10T13:19:54.805Z,50.63
2022-11-10T13:20:54.764Z,39.38
2022-11-10T13:21:54.789Z,50.63
2022-11-10T13:22:54.780Z,22.50
2022-11-10T13:23:54.781Z,28.13
2022-11-10T13:24:54.826Z,39.38
2022-11-10T13:25:54.783Z,50.63
2022-11-10T13:26:54.767Z,45.00
2022-11-10T13:27:54.778Z,45.00
2022-11-10T13:28:54.792Z,33.75
2022-11-10T13:29:54.780Z,28.13
2022-11-10T13:30:54.783Z,33.75
2022-11-10T13:31:54.785Z,39.38
2022-11-10T13:32:54.814Z,39.38
2022-11-10T13:33:54.790Z,39.38
2022-11-10T13:34:54.779Z,45.00
2022-11-10T13:35:55.618Z,22.50
2022-11-10T13:36:54.809Z,22.50
2022-11-10T13:37:54.784Z,28.13
2022-11-10T13:38:54.819Z,22.50
2022-11-10T13:39:54.780Z,22.50
2022-11-10T13:40:54.779Z,16.88
2022-11-10T13:41:54.784Z,16.88
2022-11-10T13:42:54.812Z,16.88
2022-11-10T13:43:54.807Z,16.88
2022-11-10T13:44:54.798Z,16.88
2022-11-10T13:45:54.790Z,16.88
2022-11-10T13:46:54.799Z,11.25
2022-11-10T13:47:54.793Z,11.25
2022-11-10T13:48:54.809Z,11.25
2022-11-10T13:49:54.783Z,11.25
2022-11-10T13:50:54.838Z,5.63
2022-11-10T13:51:54.801Z,5.63
2022-11-10T13:52:54.825Z,5.63
2022-11-10T13:53:54.824Z,11.25
2022-11-10T13:54:54.802Z,11.25
2022-11-10T13:55:54.795Z,5.63
2022-11-10T13:56:54.802Z,11.25
2022-11-10T13:57:54.810Z,11.25
2022-11-10T13:58:54.811Z,11.25
2022-11-10T13:59:54.832Z,11.25
2022-11-10T14:00:54.833Z,16.88
2022-11-10T14:01:54.805Z,39.38
2022-11-10T14:02:54.879Z,33.75
2022-11-10T14:03:54.979Z,22.50
2022-11-10T14:04:54.805Z,28.13
2022-11-10T14:05:54.815Z,22.50
2022-11-10T14:06:55.044Z,22.50
2022-11-10T14:07:54.820Z,22.50
2022-11-10T14:08:54.817Z,16.88
2022-11-10T14:09:54.818Z,22.50
2022-11-10T14:10:54.836Z,16.88
2022-11-10T14:11:54.818Z,16.88
2022-11-10T14:12:54.806Z,16.88
2022-11-10T14:13:54.813Z,16.88
2022-11-10T14:14:54.822Z,16.88
2022-11-10T14:15:54.813Z,16.88
2022-11-10T14:16:54.854Z,16.88
2022-11-10T14:17:54.810Z,16.88
2022-11-10T14:18:54.818Z,16.88
2022-11-10T14:19:54.814Z,16.88
2022-11-10T14:20:54.819Z,16.88
2022-11-10T14:21:58.096Z,16.88
2022-11-10T14:22:54.834Z,16.88
2022-11-10T14:23:54.839Z,11.25
2022-11-10T14:24:54.823Z,11.25
2022-11-10T14:25:54.824Z,11.25
2022-11-10T14:26:54.820Z,11.25
2022-11-10T14:27:58.132Z,11.25
2022-11-10T14:28:54.827Z,11.25
2022-11-10T14:29:54.849Z,11.25
2022-11-10T14:30:54.813Z,11.25
2022-11-10T14:31:54.820Z,11.25
2022-11-10T14:32:54.821Z,11.25
2022-11-10T14:33:54.835Z,11.25
2022-11-10T14:34:54.828Z,11.25
2022-11-10T14:35:54.832Z,5.63
2022-11-10T14:36:54.829Z,5.63
2022-11-10T14:37:54.832Z,5.63
2022-11-10T14:38:54.929Z,11.25
2022-11-10T14:39:54.838Z,5.63
2022-11-10T14:40:54.830Z,5.63
2022-11-10T14:41:54.824Z,5.63
2022-11-10T14:42:54.831Z,5.63
2022-11-10T14:43:54.843Z,5.63
2022-11-10T14:44:54.838Z,5.63
2022-11-10T14:45:54.838Z,5.63
2022-11-10T14:46:54.843Z,5.63
2022-11-10T14:47:54.833Z,5.63
2022-11-10T14:48:54.837Z,5.63
2022-11-10T14:49:54.860Z,5.63
2022-11-10T14:50:54.824Z,5.63
2022-11-10T14:51:54.839Z,5.63
2022-11-10T14:52:54.841Z,5.63
2022-11-10T14:53:54.859Z,5.63
2022-11-10T14:54:54.931Z,5.63
2022-11-10T14:55:55.276Z,5.63
2022-11-10T14:56:54.854Z,5.63
2022-11-10T14:57:54.838Z,5.63
2022-11-10T14:58:54.841Z,5.63
2022-11-10T14:59:54.833Z,5.63
2022-11-10T15:00:54.836Z,5.63
2022-11-10T15:01:54.859Z,0.00
2022-11-10T15:02:54.866Z,0.00
2022-11-10T15:03:54.827Z,0.00
2022-11-10T15:04:54.832Z,0.00
2022-11-10T15:05:54.835Z,0.00
2022-11-10T15:06:54.885Z,0.00
2022-11-10T15:07:54.840Z,0.00
2022-11-10T15:08:54.832Z,0.00
2022-11-10T15:09:54.836Z,0.00
2022-11-10T15:10:54.920Z,0.00
2022-11-10T15:11:54.841Z,0.00
2022-11-10T15:12:54.851Z,0.00
2022-11-10T15:13:54.841Z,0.00
2022-11-10T15:14:54.856Z,0.00
2022-11-10T15:15:54.851Z,0.00
2022-11-10T15:16:54.855Z,0.00
2022-11-10T15:17:54.842Z,0.00
2022-11-10T15:18:54.861Z,0.00
2022-11-10T15:19:54.831Z,0.00
2022-11-10T15:20:54.861Z,0.00
2022-11-10T15:21:54.833Z,0.00
2022-11-10T15:22:54.856Z,0.00
2022-11-10T15:23:54.846Z,0.00
2022-11-10T15:24:54.863Z,0.00
2022-11-10T15:25:54.844Z,0.00
2022-11-10T15:26:54.939Z,0.00
2022-11-10T15:27:54.839Z,0.00